Aviation Digital Data Service (ADDS)

Output produced by METARs form (1020 UTC 15 July 2020)
found at http://www.aviationweather.gov/metar/data/
 
METAR text: NZAA 151000Z AUTO 08018KT 9999 -RA FEW018/// BKN046/// OVC095/// 13/11 Q1012 TEMPO 6000 RA
Conditions at: NZAA (AUCKLAND INTL AR, NZ) observed 1000 UTC 15 July 2020
Temperature: 13.0°C (55°F)
Dewpoint: 11.0°C (52°F) [RH = 88%]
Pressure (altimeter): 29.88 inches Hg (1012.0 mb)
Winds: from the E (80 degrees) at 21 MPH (18 knots; 9.3 m/s)
Visibility: 6 or more miles (10+ km)
Ceiling: 4600 feet AGL
Clouds: few clouds at 1800 feet AGL
broken clouds at 4600 feet AGL
overcast cloud deck at 9500 feet AGL
Weather: -RA  (light rain)

METAR text: NZAA 150930Z AUTO 07016KT 9999 -RA FEW048/// BKN090/// 13/11 Q1012 TEMPO 6000 RA
Conditions at: NZAA (AUCKLAND INTL AR, NZ) observed 0930 UTC 15 July 2020
Temperature: 13.0°C (55°F)
Dewpoint: 11.0°C (52°F) [RH = 88%]
Pressure (altimeter): 29.88 inches Hg (1012.0 mb)
Winds: from the ENE (70 degrees) at 18 MPH (16 knots; 8.2 m/s)
Visibility: 6 or more miles (10+ km)
Ceiling: 9000 feet AGL
Clouds: few clouds at 4800 feet AGL
broken clouds at 9000 feet AGL
Weather: -RA  (light rain)

METAR text: NZAA 150900Z AUTO 08016KT 9999 -RA OVC085/// 13/10 Q1012 NOSIG
Conditions at: NZAA (AUCKLAND INTL AR, NZ) observed 0900 UTC 15 July 2020
Temperature: 13.0°C (55°F)
Dewpoint: 10.0°C (50°F) [RH = 82%]
Pressure (altimeter): 29.88 inches Hg (1012.0 mb)
Winds: from the E (80 degrees) at 18 MPH (16 knots; 8.2 m/s)
Visibility: 6 or more miles (10+ km)
Ceiling: 8500 feet AGL
Clouds: overcast cloud deck at 8500 feet AGL
Weather: -RA  (light rain)

METAR text: NZAA 150830Z AUTO 08015KT 9999 -RA BKN080/// BKN090/// 13/10 Q1012 TEMPO 6000 RA
Conditions at: NZAA (AUCKLAND INTL AR, NZ) observed 0830 UTC 15 July 2020
Temperature: 13.0°C (55°F)
Dewpoint: 10.0°C (50°F) [RH = 82%]
Pressure (altimeter): 29.88 inches Hg (1012.0 mb)
Winds: from the E (80 degrees) at 17 MPH (15 knots; 7.7 m/s)
Visibility: 6 or more miles (10+ km)
Ceiling: 8000 feet AGL
Clouds: broken clouds at 8000 feet AGL
broken clouds at 9000 feet AGL
Weather: -RA  (light rain)

METAR text: NZAA 150800Z AUTO 08012KT 9999 -RA OVC080/// 13/10 Q1013 TEMPO 6000 RA
Conditions at: NZAA (AUCKLAND INTL AR, NZ) observed 0800 UTC 15 July 2020
Temperature: 13.0°C (55°F)
Dewpoint: 10.0°C (50°F) [RH = 82%]
Pressure (altimeter): 29.91 inches Hg (1013.0 mb)
Winds: from the E (80 degrees) at 14 MPH (12 knots; 6.2 m/s)
Visibility: 6 or more miles (10+ km)
Ceiling: 8000 feet AGL
Clouds: overcast cloud deck at 8000 feet AGL
Weather: -RA  (light rain)

METAR text: NZAA 150730Z AUTO 09008KT 9999 -RA BKN090/// 12/10 Q1013 TEMPO 6000 RA
Conditions at: NZAA (AUCKLAND INTL AR, NZ) observed 0730 UTC 15 July 2020
Temperature: 12.0°C (54°F)
Dewpoint: 10.0°C (50°F) [RH = 88%]
Pressure (altimeter): 29.91 inches Hg (1013.0 mb)
Winds: from the E (90 degrees) at 9 MPH (8 knots; 4.1 m/s)
Visibility: 6 or more miles (10+ km)
Ceiling: 9000 feet AGL
Clouds: broken clouds at 9000 feet AGL
Weather: -RA  (light rain)

METAR text: NZAA 150700Z AUTO 10011KT 9999 -RA OVC080/// 12/10 Q1013 TEMPO 6000 RA
Conditions at: NZAA (AUCKLAND INTL AR, NZ) observed 0700 UTC 15 July 2020
Temperature: 12.0°C (54°F)
Dewpoint: 10.0°C (50°F) [RH = 88%]
Pressure (altimeter): 29.91 inches Hg (1013.0 mb)
Winds: from the E (100 degrees) at 13 MPH (11 knots; 5.7 m/s)
Visibility: 6 or more miles (10+ km)
Ceiling: 8000 feet AGL
Clouds: overcast cloud deck at 8000 feet AGL
Weather: -RA  (light rain)

METAR text: NZAA 150630Z AUTO 10008KT 9999 -RA FEW075/// BKN090/// 12/10 Q1013 NOSIG
Conditions at: NZAA (AUCKLAND INTL AR, NZ) observed 0630 UTC 15 July 2020
Temperature: 12.0°C (54°F)
Dewpoint: 10.0°C (50°F) [RH = 88%]
Pressure (altimeter): 29.91 inches Hg (1013.0 mb)
Winds: from the E (100 degrees) at 9 MPH (8 knots; 4.1 m/s)
Visibility: 6 or more miles (10+ km)
Ceiling: 9000 feet AGL
Clouds: few clouds at 7500 feet AGL
broken clouds at 9000 feet AGL
Weather: -RA  (light rain)

METAR text: NZAA 150600Z AUTO 10008KT 9999 -RA FEW070/// OVC085/// 12/11 Q1014 NOSIG
Conditions at: NZAA (AUCKLAND INTL AR, NZ) observed 0600 UTC 15 July 2020
Temperature: 12.0°C (54°F)
Dewpoint: 11.0°C (52°F) [RH = 94%]
Pressure (altimeter): 29.94 inches Hg (1014.0 mb)
Winds: from the E (100 degrees) at 9 MPH (8 knots; 4.1 m/s)
Visibility: 6 or more miles (10+ km)
Ceiling: 8500 feet AGL
Clouds: few clouds at 7000 feet AGL
overcast cloud deck at 8500 feet AGL
Weather: -RA  (light rain)

METAR text: NZAA 150530Z AUTO 09007KT 9999 -RA BKN085/// 12/11 Q1014 NOSIG
Conditions at: NZAA (AUCKLAND INTL AR, NZ) observed 0530 UTC 15 July 2020
Temperature: 12.0°C (54°F)
Dewpoint: 11.0°C (52°F) [RH = 94%]
Pressure (altimeter): 29.94 inches Hg (1014.0 mb)
Winds: from the E (90 degrees) at 8 MPH (7 knots; 3.6 m/s)
Visibility: 6 or more miles (10+ km)
Ceiling: 8500 feet AGL
Clouds: broken clouds at 8500 feet AGL
Weather: -RA  (light rain)

METAR text: NZAA 150500Z AUTO 11009KT 9999 -RA OVC080/// 12/11 Q1014 NOSIG
Conditions at: NZAA (AUCKLAND INTL AR, NZ) observed 0500 UTC 15 July 2020
Temperature: 12.0°C (54°F)
Dewpoint: 11.0°C (52°F) [RH = 94%]
Pressure (altimeter): 29.94 inches Hg (1014.0 mb)
Winds: from the ESE (110 degrees) at 10 MPH (9 knots; 4.6 m/s)
Visibility: 6 or more miles (10+ km)
Ceiling: 8000 feet AGL
Clouds: overcast cloud deck at 8000 feet AGL
Weather: -RA  (light rain)

METAR text: NZAA 150430Z AUTO 10009KT 9999 -RA FEW060/// OVC080/// 12/11 Q1014 NOSIG
Conditions at: NZAA (AUCKLAND INTL AR, NZ) observed 0430 UTC 15 July 2020
Temperature: 12.0°C (54°F)
Dewpoint: 11.0°C (52°F) [RH = 94%]
Pressure (altimeter): 29.94 inches Hg (1014.0 mb)
Winds: from the E (100 degrees) at 10 MPH (9 knots; 4.6 m/s)
Visibility: 6 or more miles (10+ km)
Ceiling: 8000 feet AGL
Clouds: few clouds at 6000 feet AGL
overcast cloud deck at 8000 feet AGL
Weather: -RA  (light rain)

METAR text: NZAA 150400Z AUTO 11010KT 9999 -RA BKN070/// 13/11 Q1015 TEMPO 6000 RA
Conditions at: NZAA (AUCKLAND INTL AR, NZ) observed 0400 UTC 15 July 2020
Temperature: 13.0°C (55°F)
Dewpoint: 11.0°C (52°F) [RH = 88%]
Pressure (altimeter): 29.97 inches Hg (1015.0 mb)
Winds: from the ESE (110 degrees) at 12 MPH (10 knots; 5.1 m/s)
Visibility: 6 or more miles (10+ km)
Ceiling: 7000 feet AGL
Clouds: broken clouds at 7000 feet AGL
Weather: -RA  (light rain)

METAR text: NZAA 150330Z AUTO 11010KT 9999 -RA FEW055/// OVC070/// 13/11 Q1015 TEMPO 6000 RA
Conditions at: NZAA (AUCKLAND INTL AR, NZ) observed 0330 UTC 15 July 2020
Temperature: 13.0°C (55°F)
Dewpoint: 11.0°C (52°F) [RH = 88%]
Pressure (altimeter): 29.97 inches Hg (1015.0 mb)
Winds: from the ESE (110 degrees) at 12 MPH (10 knots; 5.1 m/s)
Visibility: 6 or more miles (10+ km)
Ceiling: 7000 feet AGL
Clouds: few clouds at 5500 feet AGL
overcast cloud deck at 7000 feet AGL
Weather: -RA  (light rain)

METAR text: NZAA 150300Z AUTO 10008KT 9999 -RA BKN065/// 13/11 Q1015 TEMPO 6000 RA
Conditions at: NZAA (AUCKLAND INTL AR, NZ) observed 0300 UTC 15 July 2020
Temperature: 13.0°C (55°F)
Dewpoint: 11.0°C (52°F) [RH = 88%]
Pressure (altimeter): 29.97 inches Hg (1015.0 mb)
Winds: from the E (100 degrees) at 9 MPH (8 knots; 4.1 m/s)
Visibility: 6 or more miles (10+ km)
Ceiling: 6500 feet AGL
Clouds: broken clouds at 6500 feet AGL
Weather: -RA  (light rain)

METAR text: NZAA 150230Z AUTO 10009KT 9999 FEW070/// OVC080/// 14/11 Q1015 TEMPO 6000 RA
Conditions at: NZAA (AUCKLAND INTL AR, NZ) observed 0230 UTC 15 July 2020
Temperature: 14.0°C (57°F)
Dewpoint: 11.0°C (52°F) [RH = 82%]
Pressure (altimeter): 29.97 inches Hg (1015.0 mb)
Winds: from the E (100 degrees) at 10 MPH (9 knots; 4.6 m/s)
Visibility: 6 or more miles (10+ km)
Ceiling: 8000 feet AGL
Clouds: few clouds at 7000 feet AGL
overcast cloud deck at 8000 feet AGL
Weather: no significant weather observed at this time

METAR text: NZAA 150200Z AUTO 12011KT 9999 BKN080/// 14/12 Q1015 TEMPO 6000 RA
Conditions at: NZAA (AUCKLAND INTL AR, NZ) observed 0200 UTC 15 July 2020
Temperature: 14.0°C (57°F)
Dewpoint: 12.0°C (54°F) [RH = 88%]
Pressure (altimeter): 29.97 inches Hg (1015.0 mb)
Winds: from the ESE (120 degrees) at 13 MPH (11 knots; 5.7 m/s)
Visibility: 6 or more miles (10+ km)
Ceiling: 8000 feet AGL
Clouds: broken clouds at 8000 feet AGL
Weather: no significant weather observed at this time

METAR text: NZAA 150130Z AUTO 11012KT 9999 BKN080/// 14/11 Q1015 NOSIG
Conditions at: NZAA (AUCKLAND INTL AR, NZ) observed 0130 UTC 15 July 2020
Temperature: 14.0°C (57°F)
Dewpoint: 11.0°C (52°F) [RH = 82%]
Pressure (altimeter): 29.97 inches Hg (1015.0 mb)
Winds: from the ESE (110 degrees) at 14 MPH (12 knots; 6.2 m/s)
Visibility: 6 or more miles (10+ km)
Ceiling: 8000 feet AGL
Clouds: broken clouds at 8000 feet AGL
Weather: no significant weather observed at this time

METAR text: NZAA 150100Z AUTO 14010KT 9999 FEW060/// BKN090/// 14/12 Q1016 NOSIG
Conditions at: NZAA (AUCKLAND INTL AR, NZ) observed 0100 UTC 15 July 2020
Temperature: 14.0°C (57°F)
Dewpoint: 12.0°C (54°F) [RH = 88%]
Pressure (altimeter): 30.00 inches Hg (1016.0 mb)
Winds: from the SE (140 degrees) at 12 MPH (10 knots; 5.1 m/s)
Visibility: 6 or more miles (10+ km)
Ceiling: 9000 feet AGL
Clouds: few clouds at 6000 feet AGL
broken clouds at 9000 feet AGL
Weather: no significant weather observed at this time

METAR text: NZAA 150030Z AUTO 09007KT 9999 -RA FEW043/// SCT060/// BKN085/// 14/12 Q1017 NOSIG
Conditions at: NZAA (AUCKLAND INTL AR, NZ) observed 0030 UTC 15 July 2020
Temperature: 14.0°C (57°F)
Dewpoint: 12.0°C (54°F) [RH = 88%]
Pressure (altimeter): 30.03 inches Hg (1017.0 mb)
Winds: from the E (90 degrees) at 8 MPH (7 knots; 3.6 m/s)
Visibility: 6 or more miles (10+ km)
Ceiling: 8500 feet AGL
Clouds: few clouds at 4300 feet AGL
scattered clouds at 6000 feet AGL
broken clouds at 8500 feet AGL
Weather: -RA  (light rain)

METAR text: NZAA 150000Z AUTO 09005KT 9999 FEW070/// BKN100/// 14/12 Q1017 NOSIG
Conditions at: NZAA (AUCKLAND INTL AR, NZ) observed 0000 UTC 15 July 2020
Temperature: 14.0°C (57°F)
Dewpoint: 12.0°C (54°F) [RH = 88%]
Pressure (altimeter): 30.03 inches Hg (1017.0 mb)
Winds: from the E (90 degrees) at 6 MPH (5 knots; 2.6 m/s)
Visibility: 6 or more miles (10+ km)
Ceiling: 10000 feet AGL
Clouds: few clouds at 7000 feet AGL
broken clouds at 10000 feet AGL
Weather: no significant weather observed at this time

METAR text: NZAA 142330Z AUTO 08008KT 050V110 9999 -RA SCT070/// BKN080/// BKN100/// 14/12 Q1017 NOSIG
Conditions at: NZAA (AUCKLAND INTL AR, NZ) observed 2330 UTC 14 July 2020
Temperature: 14.0°C (57°F)
Dewpoint: 12.0°C (54°F) [RH = 88%]
Pressure (altimeter): 30.03 inches Hg (1017.0 mb)
Winds: from the E (80 degrees) at 9 MPH (8 knots; 4.1 m/s)
Visibility: 6 or more miles (10+ km)
Ceiling: 8000 feet AGL
Clouds: scattered clouds at 7000 feet AGL
broken clouds at 8000 feet AGL
broken clouds at 10000 feet AGL
Weather: -RA  (light rain)

METAR text: NZAA 142300Z AUTO 11010KT 9999 -RA BKN065/// 14/12 Q1017 NOSIG
Conditions at: NZAA (AUCKLAND INTL AR, NZ) observed 2300 UTC 14 July 2020
Temperature: 14.0°C (57°F)
Dewpoint: 12.0°C (54°F) [RH = 88%]
Pressure (altimeter): 30.03 inches Hg (1017.0 mb)
Winds: from the ESE (110 degrees) at 12 MPH (10 knots; 5.1 m/s)
Visibility: 6 or more miles (10+ km)
Ceiling: 6500 feet AGL
Clouds: broken clouds at 6500 feet AGL
Weather: -RA  (light rain)

METAR text: NZAA 142230Z AUTO 09007KT 9999 -RA BKN075/// BKN090/// 14/12 Q1018 NOSIG
Conditions at: NZAA (AUCKLAND INTL AR, NZ) observed 2230 UTC 14 July 2020
Temperature: 14.0°C (57°F)
Dewpoint: 12.0°C (54°F) [RH = 88%]
Pressure (altimeter): 30.06 inches Hg (1018.0 mb)
Winds: from the E (90 degrees) at 8 MPH (7 knots; 3.6 m/s)
Visibility: 6 or more miles (10+ km)
Ceiling: 7500 feet AGL
Clouds: broken clouds at 7500 feet AGL
broken clouds at 9000 feet AGL
Weather: -RA  (light rain)

METAR text: NZAA 142200Z AUTO 09005KT 9999 -RA FEW070/// OVC085/// 13/12 Q1018 NOSIG
Conditions at: NZAA (AUCKLAND INTL AR, NZ) observed 2200 UTC 14 July 2020
Temperature: 13.0°C (55°F)
Dewpoint: 12.0°C (54°F) [RH = 94%]
Pressure (altimeter): 30.06 inches Hg (1018.0 mb)
Winds: from the E (90 degrees) at 6 MPH (5 knots; 2.6 m/s)
Visibility: 6 or more miles (10+ km)
Ceiling: 8500 feet AGL
Clouds: few clouds at 7000 feet AGL
overcast cloud deck at 8500 feet AGL
Weather: -RA  (light rain)

METAR text: NZAA 142130Z AUTO 13003KT 9999 FEW080/// OVC100/// 13/12 Q1018 NOSIG
Conditions at: NZAA (AUCKLAND INTL AR, NZ) observed 2130 UTC 14 July 2020
Temperature: 13.0°C (55°F)
Dewpoint: 12.0°C (54°F) [RH = 94%]
Pressure (altimeter): 30.06 inches Hg (1018.0 mb)
Winds: from the SE (130 degrees) at 3 MPH (3 knots; 1.5 m/s)
Visibility: 6 or more miles (10+ km)
Ceiling: 10000 feet AGL
Clouds: few clouds at 8000 feet AGL
overcast cloud deck at 10000 feet AGL
Weather: no significant weather observed at this time

METAR text: NZAA 142100Z AUTO 11002KT 9999 NCD 13/12 Q1018 NOSIG
Conditions at: NZAA (AUCKLAND INTL AR, NZ) observed 2100 UTC 14 July 2020
Temperature: 13.0°C (55°F)
Dewpoint: 12.0°C (54°F) [RH = 94%]
Pressure (altimeter): 30.06 inches Hg (1018.0 mb)
Winds: from the ESE (110 degrees) at 2 MPH (2 knots; 1.0 m/s)
Visibility: 6 or more miles (10+ km)
Ceiling: at least 12,000 feet AGL
Clouds: sky clear below 12,000 feet AGL
Weather: no significant weather observed at this time

METAR text: NZAA 142030Z AUTO 09005KT 9999 NCD 13/12 Q1017 NOSIG
Conditions at: NZAA (AUCKLAND INTL AR, NZ) observed 2030 UTC 14 July 2020
Temperature: 13.0°C (55°F)
Dewpoint: 12.0°C (54°F) [RH = 94%]
Pressure (altimeter): 30.03 inches Hg (1017.0 mb)
Winds: from the E (90 degrees) at 6 MPH (5 knots; 2.6 m/s)
Visibility: 6 or more miles (10+ km)
Ceiling: at least 12,000 feet AGL
Clouds: sky clear below 12,000 feet AGL
Weather: no significant weather observed at this time

METAR text: NZAA 142000Z AUTO 08005KT 9999 NCD 13/12 Q1017 NOSIG
Conditions at: NZAA (AUCKLAND INTL AR, NZ) observed 2000 UTC 14 July 2020
Temperature: 13.0°C (55°F)
Dewpoint: 12.0°C (54°F) [RH = 94%]
Pressure (altimeter): 30.03 inches Hg (1017.0 mb)
Winds: from the E (80 degrees) at 6 MPH (5 knots; 2.6 m/s)
Visibility: 6 or more miles (10+ km)
Ceiling: at least 12,000 feet AGL
Clouds: sky clear below 12,000 feet AGL
Weather: no significant weather observed at this time

METAR text: NZAA 141930Z AUTO 08006KT 9999 NCD 13/12 Q1017 NOSIG
Conditions at: NZAA (AUCKLAND INTL AR, NZ) observed 1930 UTC 14 July 2020
Temperature: 13.0°C (55°F)
Dewpoint: 12.0°C (54°F) [RH = 94%]
Pressure (altimeter): 30.03 inches Hg (1017.0 mb)
Winds: from the E (80 degrees) at 7 MPH (6 knots; 3.1 m/s)
Visibility: 6 or more miles (10+ km)
Ceiling: at least 12,000 feet AGL
Clouds: sky clear below 12,000 feet AGL
Weather: no significant weather observed at this time

METAR text: NZAA 141900Z AUTO 09004KT 9999 NCD 13/12 Q1017 NOSIG
Conditions at: NZAA (AUCKLAND INTL AR, NZ) observed 1900 UTC 14 July 2020
Temperature: 13.0°C (55°F)
Dewpoint: 12.0°C (54°F) [RH = 94%]
Pressure (altimeter): 30.03 inches Hg (1017.0 mb)
Winds: from the E (90 degrees) at 5 MPH (4 knots; 2.1 m/s)
Visibility: 6 or more miles (10+ km)
Ceiling: at least 12,000 feet AGL
Clouds: sky clear below 12,000 feet AGL
Weather: no significant weather observed at this time

METAR text: NZAA 141830Z AUTO 10006KT 9999 NCD 13/13 Q1017 NOSIG
Conditions at: NZAA (AUCKLAND INTL AR, NZ) observed 1830 UTC 14 July 2020
Temperature: 13.0°C (55°F)
Dewpoint: 13.0°C (55°F) [RH = 100%]
Pressure (altimeter): 30.03 inches Hg (1017.0 mb)
Winds: from the E (100 degrees) at 7 MPH (6 knots; 3.1 m/s)
Visibility: 6 or more miles (10+ km)
Ceiling: at least 12,000 feet AGL
Clouds: sky clear below 12,000 feet AGL
Weather: no significant weather observed at this time

METAR text: NZAA 141800Z AUTO 10004KT 9999 FEW090/// 12/12 Q1018 NOSIG
Conditions at: NZAA (AUCKLAND INTL AR, NZ) observed 1800 UTC 14 July 2020
Temperature: 12.0°C (54°F)
Dewpoint: 12.0°C (54°F) [RH = 100%]
Pressure (altimeter): 30.06 inches Hg (1018.0 mb)
Winds: from the E (100 degrees) at 5 MPH (4 knots; 2.1 m/s)
Visibility: 6 or more miles (10+ km)
Ceiling: at least 12,000 feet AGL
Clouds: few clouds at 9000 feet AGL
Weather: no significant weather observed at this time

METAR text: NZAA 141730Z AUTO 13002KT 9999 SCT060/// BKN080/// 12/12 Q1018 NOSIG
Conditions at: NZAA (AUCKLAND INTL AR, NZ) observed 1730 UTC 14 July 2020
Temperature: 12.0°C (54°F)
Dewpoint: 12.0°C (54°F) [RH = 100%]
Pressure (altimeter): 30.06 inches Hg (1018.0 mb)
Winds: from the SE (130 degrees) at 2 MPH (2 knots; 1.0 m/s)
Visibility: 6 or more miles (10+ km)
Ceiling: 8000 feet AGL
Clouds: scattered clouds at 6000 feet AGL
broken clouds at 8000 feet AGL
Weather: no significant weather observed at this time

METAR text: NZAA 141700Z AUTO 10002KT 9999 SCT060/// BKN075/// 12/12 Q1018 NOSIG
Conditions at: NZAA (AUCKLAND INTL AR, NZ) observed 1700 UTC 14 July 2020
Temperature: 12.0°C (54°F)
Dewpoint: 12.0°C (54°F) [RH = 100%]
Pressure (altimeter): 30.06 inches Hg (1018.0 mb)
Winds: from the E (100 degrees) at 2 MPH (2 knots; 1.0 m/s)
Visibility: 6 or more miles (10+ km)
Ceiling: 7500 feet AGL
Clouds: scattered clouds at 6000 feet AGL
broken clouds at 7500 feet AGL
Weather: no significant weather observed at this time

METAR text: NZAA 141630Z AUTO 03003KT 9999 FEW055/// BKN075/// BKN095/// 13/13 Q1018 NOSIG
Conditions at: NZAA (AUCKLAND INTL AR, NZ) observed 1630 UTC 14 July 2020
Temperature: 13.0°C (55°F)
Dewpoint: 13.0°C (55°F) [RH = 100%]
Pressure (altimeter): 30.06 inches Hg (1018.0 mb)
Winds: from the NNE (30 degrees) at 3 MPH (3 knots; 1.5 m/s)
Visibility: 6 or more miles (10+ km)
Ceiling: 7500 feet AGL
Clouds: few clouds at 5500 feet AGL
broken clouds at 7500 feet AGL
broken clouds at 9500 feet AGL
Weather: no significant weather observed at this time

METAR text: NZAA 141600Z AUTO 05002KT 9999 BKN070/// 13/12 Q1018 NOSIG
Conditions at: NZAA (AUCKLAND INTL AR, NZ) observed 1600 UTC 14 July 2020
Temperature: 13.0°C (55°F)
Dewpoint: 12.0°C (54°F) [RH = 94%]
Pressure (altimeter): 30.06 inches Hg (1018.0 mb)
Winds: from the NE (50 degrees) at 2 MPH (2 knots; 1.0 m/s)
Visibility: 6 or more miles (10+ km)
Ceiling: 7000 feet AGL
Clouds: broken clouds at 7000 feet AGL
Weather: no significant weather observed at this time

METAR text: NZAA 141530Z AUTO 09004KT 9999 FEW070/// 13/13 Q1018 NOSIG
Conditions at: NZAA (AUCKLAND INTL AR, NZ) observed 1530 UTC 14 July 2020
Temperature: 13.0°C (55°F)
Dewpoint: 13.0°C (55°F) [RH = 100%]
Pressure (altimeter): 30.06 inches Hg (1018.0 mb)
Winds: from the E (90 degrees) at 5 MPH (4 knots; 2.1 m/s)
Visibility: 6 or more miles (10+ km)
Ceiling: at least 12,000 feet AGL
Clouds: few clouds at 7000 feet AGL
Weather: no significant weather observed at this time

METAR text: NZAA 141500Z AUTO 06003KT 9999 FEW065/// BKN100/// 13/12 Q1019 NOSIG
Conditions at: NZAA (AUCKLAND INTL AR, NZ) observed 1500 UTC 14 July 2020
Temperature: 13.0°C (55°F)
Dewpoint: 12.0°C (54°F) [RH = 94%]
Pressure (altimeter): 30.09 inches Hg (1019.0 mb)
Winds: from the ENE (60 degrees) at 3 MPH (3 knots; 1.5 m/s)
Visibility: 6 or more miles (10+ km)
Ceiling: 10000 feet AGL
Clouds: few clouds at 6500 feet AGL
broken clouds at 10000 feet AGL
Weather: no significant weather observed at this time

METAR text: NZAA 141430Z AUTO 02003KT 9999 SCT065/// 13/12 Q1020 TEMPO BKN009
Conditions at: NZAA (AUCKLAND INTL AR, NZ) observed 1430 UTC 14 July 2020
Temperature: 13.0°C (55°F)
Dewpoint: 12.0°C (54°F) [RH = 94%]
Pressure (altimeter): 30.12 inches Hg (1020.0 mb)
Winds: from the NNE (20 degrees) at 3 MPH (3 knots; 1.5 m/s)
Visibility: 6 or more miles (10+ km)
Ceiling: at least 12,000 feet AGL
Clouds: scattered clouds at 6500 feet AGL
Weather: no significant weather observed at this time

METAR text: NZAA 141400Z AUTO 02004KT 9999 BKN065/// 13/12 Q1020 TEMPO BKN009
Conditions at: NZAA (AUCKLAND INTL AR, NZ) observed 1400 UTC 14 July 2020
Temperature: 13.0°C (55°F)
Dewpoint: 12.0°C (54°F) [RH = 94%]
Pressure (altimeter): 30.12 inches Hg (1020.0 mb)
Winds: from the NNE (20 degrees) at 5 MPH (4 knots; 2.1 m/s)
Visibility: 6 or more miles (10+ km)
Ceiling: 6500 feet AGL
Clouds: broken clouds at 6500 feet AGL
Weather: no significant weather observed at this time

METAR text: NZAA 141330Z AUTO 05003KT 9999 OVC060/// 13/13 Q1020 TEMPO BKN009
Conditions at: NZAA (AUCKLAND INTL AR, NZ) observed 1330 UTC 14 July 2020
Temperature: 13.0°C (55°F)
Dewpoint: 13.0°C (55°F) [RH = 100%]
Pressure (altimeter): 30.12 inches Hg (1020.0 mb)
Winds: from the NE (50 degrees) at 3 MPH (3 knots; 1.5 m/s)
Visibility: 6 or more miles (10+ km)
Ceiling: 6000 feet AGL
Clouds: overcast cloud deck at 6000 feet AGL
Weather: no significant weather observed at this time

METAR text: NZAA 141300Z AUTO 05003KT 9999 BKN055/// 13/13 Q1020 TEMPO BKN009
Conditions at: NZAA (AUCKLAND INTL AR, NZ) observed 1300 UTC 14 July 2020
Temperature: 13.0°C (55°F)
Dewpoint: 13.0°C (55°F) [RH = 100%]
Pressure (altimeter): 30.12 inches Hg (1020.0 mb)
Winds: from the NE (50 degrees) at 3 MPH (3 knots; 1.5 m/s)
Visibility: 6 or more miles (10+ km)
Ceiling: 5500 feet AGL
Clouds: broken clouds at 5500 feet AGL
Weather: no significant weather observed at this time

METAR text: NZAA 141230Z AUTO 03003KT 9999 FEW010/// OVC055/// 13/13 Q1020 TEMPO BKN009
Conditions at: NZAA (AUCKLAND INTL AR, NZ) observed 1230 UTC 14 July 2020
Temperature: 13.0°C (55°F)
Dewpoint: 13.0°C (55°F) [RH = 100%]
Pressure (altimeter): 30.12 inches Hg (1020.0 mb)
Winds: from the NNE (30 degrees) at 3 MPH (3 knots; 1.5 m/s)
Visibility: 6 or more miles (10+ km)
Ceiling: 5500 feet AGL
Clouds: few clouds at 1000 feet AGL
overcast cloud deck at 5500 feet AGL
Weather: no significant weather observed at this time

METAR text: NZAA 141200Z AUTO 04003KT 9999 BKN009/// 13/13 Q1020 BECMG SCT009 TEMPO BKN009
Conditions at: NZAA (AUCKLAND INTL AR, NZ) observed 1200 UTC 14 July 2020
Temperature: 13.0°C (55°F)
Dewpoint: 13.0°C (55°F) [RH = 100%]
Pressure (altimeter): 30.12 inches Hg (1020.0 mb)
Winds: from the NE (40 degrees) at 3 MPH (3 knots; 1.5 m/s)
Visibility: 6 or more miles (10+ km)
Ceiling: 900 feet AGL
Clouds: broken clouds at 900 feet AGL
Weather: no significant weather observed at this time

METAR text: NZAA 141130Z AUTO 11003KT 9999 OVC008/// 13/12 Q1020 BECMG SCT009
Conditions at: NZAA (AUCKLAND INTL AR, NZ) observed 1130 UTC 14 July 2020
Temperature: 13.0°C (55°F)
Dewpoint: 12.0°C (54°F) [RH = 94%]
Pressure (altimeter): 30.12 inches Hg (1020.0 mb)
Winds: from the ESE (110 degrees) at 3 MPH (3 knots; 1.5 m/s)
Visibility: 6 or more miles (10+ km)
Ceiling: 800 feet AGL
Clouds: overcast cloud deck at 800 feet AGL
Weather: no significant weather observed at this time

METAR text: NZAA 141100Z AUTO 09003KT 7000 BKN009/// 12/12 Q1021 BECMG 9999 SCT009
Conditions at: NZAA (AUCKLAND INTL AR, NZ) observed 1100 UTC 14 July 2020
Temperature: 12.0°C (54°F)
Dewpoint: 12.0°C (54°F) [RH = 100%]
Pressure (altimeter): 30.15 inches Hg (1021.0 mb)
Winds: from the E (90 degrees) at 3 MPH (3 knots; 1.5 m/s)
Visibility: 4 miles ( 7 km)
Ceiling: 900 feet AGL
Clouds: broken clouds at 900 feet AGL
Weather: no significant weather observed at this time

METAR text: NZAA 141030Z AUTO 06003KT 0650 R23L/P2000N R05R/P2000N FG VV009 12/11 Q1021 BECMG 9999 NSW TEMPO 0500 FG
Conditions at: NZAA (AUCKLAND INTL AR, NZ) observed 1030 UTC 14 July 2020
Temperature: 12.0°C (54°F)
Dewpoint: 11.0°C (52°F) [RH = 94%]
Pressure (altimeter): 30.15 inches Hg (1021.0 mb)
Winds: from the ENE (60 degrees) at 3 MPH (3 knots; 1.5 m/s)
Visibility: 0.40 miles (0.64 km)
Ceiling: indefinite ceiling with vertical visibility of 900 feet AGL
Clouds: obscured sky
Weather: FG  (fog)

METAR text: NZAA 141000Z AUTO 06004KT 5000 BR FEW020/// 12/11 Q1021 BECMG 9999
Conditions at: NZAA (AUCKLAND INTL AR, NZ) observed 1000 UTC 14 July 2020
Temperature: 12.0°C (54°F)
Dewpoint: 11.0°C (52°F) [RH = 94%]
Pressure (altimeter): 30.15 inches Hg (1021.0 mb)
Winds: from the ENE (60 degrees) at 5 MPH (4 knots; 2.1 m/s)
Visibility: 3 miles ( 5 km)
Ceiling: at least 12,000 feet AGL
Clouds: few clouds at 2000 feet AGL
Weather: BR  (mist)

METAR text: NZAA 140930Z AUTO 02005KT 7000 BKN018/// 12/12 Q1021 BECMG 9999
Conditions at: NZAA (AUCKLAND INTL AR, NZ) observed 0930 UTC 14 July 2020
Temperature: 12.0°C (54°F)
Dewpoint: 12.0°C (54°F) [RH = 100%]
Pressure (altimeter): 30.15 inches Hg (1021.0 mb)
Winds: from the NNE (20 degrees) at 6 MPH (5 knots; 2.6 m/s)
Visibility: 4 miles ( 7 km)
Ceiling: 1800 feet AGL
Clouds: broken clouds at 1800 feet AGL
Weather: no significant weather observed at this time

METAR text: NZAA 140900Z AUTO 02004KT 8000 SCT018/// 13/12 Q1021 BECMG 9999
Conditions at: NZAA (AUCKLAND INTL AR, NZ) observed 0900 UTC 14 July 2020
Temperature: 13.0°C (55°F)
Dewpoint: 12.0°C (54°F) [RH = 94%]
Pressure (altimeter): 30.15 inches Hg (1021.0 mb)
Winds: from the NNE (20 degrees) at 5 MPH (4 knots; 2.1 m/s)
Visibility: 5 miles ( 8 km)
Ceiling: at least 12,000 feet AGL
Clouds: scattered clouds at 1800 feet AGL
Weather: no significant weather observed at this time

METAR text: NZAA 140830Z AUTO 03005KT 9999 NCD 13/12 Q1021 NOSIG
Conditions at: NZAA (AUCKLAND INTL AR, NZ) observed 0830 UTC 14 July 2020
Temperature: 13.0°C (55°F)
Dewpoint: 12.0°C (54°F) [RH = 94%]
Pressure (altimeter): 30.15 inches Hg (1021.0 mb)
Winds: from the NNE (30 degrees) at 6 MPH (5 knots; 2.6 m/s)
Visibility: 6 or more miles (10+ km)
Ceiling: at least 12,000 feet AGL
Clouds: sky clear below 12,000 feet AGL
Weather: no significant weather observed at this time

METAR text: NZAA 140800Z AUTO 02005KT 9999 NCD 12/12 Q1021 NOSIG
Conditions at: NZAA (AUCKLAND INTL AR, NZ) observed 0800 UTC 14 July 2020
Temperature: 12.0°C (54°F)
Dewpoint: 12.0°C (54°F) [RH = 100%]
Pressure (altimeter): 30.15 inches Hg (1021.0 mb)
Winds: from the NNE (20 degrees) at 6 MPH (5 knots; 2.6 m/s)
Visibility: 6 or more miles (10+ km)
Ceiling: at least 12,000 feet AGL
Clouds: sky clear below 12,000 feet AGL
Weather: no significant weather observed at this time

METAR text: NZAA 140730Z AUTO 03004KT 9999 NCD 13/13 Q1021 NOSIG
Conditions at: NZAA (AUCKLAND INTL AR, NZ) observed 0730 UTC 14 July 2020
Temperature: 13.0°C (55°F)
Dewpoint: 13.0°C (55°F) [RH = 100%]
Pressure (altimeter): 30.15 inches Hg (1021.0 mb)
Winds: from the NNE (30 degrees) at 5 MPH (4 knots; 2.1 m/s)
Visibility: 6 or more miles (10+ km)
Ceiling: at least 12,000 feet AGL
Clouds: sky clear below 12,000 feet AGL
Weather: no significant weather observed at this time

METAR text: NZAA 140700Z AUTO 03004KT 9999 SCT025/// 14/13 Q1021 NOSIG
Conditions at: NZAA (AUCKLAND INTL AR, NZ) observed 0700 UTC 14 July 2020
Temperature: 14.0°C (57°F)
Dewpoint: 13.0°C (55°F) [RH = 94%]
Pressure (altimeter): 30.15 inches Hg (1021.0 mb)
Winds: from the NNE (30 degrees) at 5 MPH (4 knots; 2.1 m/s)
Visibility: 6 or more miles (10+ km)
Ceiling: at least 12,000 feet AGL
Clouds: scattered clouds at 2500 feet AGL
Weather: no significant weather observed at this time

METAR text: NZAA 140630Z AUTO 02005KT 9999 SCT010/// OVC025/// 14/13 Q1021 NOSIG
Conditions at: NZAA (AUCKLAND INTL AR, NZ) observed 0630 UTC 14 July 2020
Temperature: 14.0°C (57°F)
Dewpoint: 13.0°C (55°F) [RH = 94%]
Pressure (altimeter): 30.15 inches Hg (1021.0 mb)
Winds: from the NNE (20 degrees) at 6 MPH (5 knots; 2.6 m/s)
Visibility: 6 or more miles (10+ km)
Ceiling: 2500 feet AGL
Clouds: scattered clouds at 1000 feet AGL
overcast cloud deck at 2500 feet AGL
Weather: no significant weather observed at this time

METAR text: NZAA 140600Z AUTO 36003KT 9999 BKN018/// BKN025/// OVC030/// 15/14 Q1021 NOSIG
Conditions at: NZAA (AUCKLAND INTL AR, NZ) observed 0600 UTC 14 July 2020
Temperature: 15.0°C (59°F)
Dewpoint: 14.0°C (57°F) [RH = 94%]
Pressure (altimeter): 30.15 inches Hg (1021.0 mb)
Winds: from the N (360 degrees) at 3 MPH (3 knots; 1.5 m/s)
Visibility: 6 or more miles (10+ km)
Ceiling: 1800 feet AGL
Clouds: broken clouds at 1800 feet AGL
broken clouds at 2500 feet AGL
overcast cloud deck at 3000 feet AGL
Weather: no significant weather observed at this time

METAR text: NZAA 140530Z AUTO 32005KT 9999 BKN021/// OVC029/// 15/14 Q1021 NOSIG
Conditions at: NZAA (AUCKLAND INTL AR, NZ) observed 0530 UTC 14 July 2020
Temperature: 15.0°C (59°F)
Dewpoint: 14.0°C (57°F) [RH = 94%]
Pressure (altimeter): 30.15 inches Hg (1021.0 mb)
Winds: from the NW (320 degrees) at 6 MPH (5 knots; 2.6 m/s)
Visibility: 6 or more miles (10+ km)
Ceiling: 2100 feet AGL
Clouds: broken clouds at 2100 feet AGL
overcast cloud deck at 2900 feet AGL
Weather: no significant weather observed at this time

METAR text: NZAA 140500Z AUTO 34005KT 310V010 9999 FEW009/// OVC025/// 15/14 Q1020 NOSIG
Conditions at: NZAA (AUCKLAND INTL AR, NZ) observed 0500 UTC 14 July 2020
Temperature: 15.0°C (59°F)
Dewpoint: 14.0°C (57°F) [RH = 94%]
Pressure (altimeter): 30.12 inches Hg (1020.0 mb)
Winds: from the NNW (340 degrees) at 6 MPH (5 knots; 2.6 m/s)
Visibility: 6 or more miles (10+ km)
Ceiling: 2500 feet AGL
Clouds: few clouds at 900 feet AGL
overcast cloud deck at 2500 feet AGL
Weather: no significant weather observed at this time

METAR text: NZAA 140430Z AUTO 04003KT 9999 BKN009/// BKN028/// 15/14 Q1020 BECMG FEW005 BKN025
Conditions at: NZAA (AUCKLAND INTL AR, NZ) observed 0430 UTC 14 July 2020
Temperature: 15.0°C (59°F)
Dewpoint: 14.0°C (57°F) [RH = 94%]
Pressure (altimeter): 30.12 inches Hg (1020.0 mb)
Winds: from the NE (40 degrees) at 3 MPH (3 knots; 1.5 m/s)
Visibility: 6 or more miles (10+ km)
Ceiling: 900 feet AGL
Clouds: broken clouds at 900 feet AGL
broken clouds at 2800 feet AGL
Weather: no significant weather observed at this time

METAR text: NZAA 140400Z AUTO 04004KT 9999 NCD 15/14 Q1021 NOSIG
Conditions at: NZAA (AUCKLAND INTL AR, NZ) observed 0400 UTC 14 July 2020
Temperature: 15.0°C (59°F)
Dewpoint: 14.0°C (57°F) [RH = 94%]
Pressure (altimeter): 30.15 inches Hg (1021.0 mb)
Winds: from the NE (40 degrees) at 5 MPH (4 knots; 2.1 m/s)
Visibility: 6 or more miles (10+ km)
Ceiling: at least 12,000 feet AGL
Clouds: sky clear below 12,000 feet AGL
Weather: no significant weather observed at this time

METAR text: NZAA 140330Z AUTO 02006KT 9999 FEW007/// 15/14 Q1021 TEMPO 6000 SHRA BKN004
Conditions at: NZAA (AUCKLAND INTL AR, NZ) observed 0330 UTC 14 July 2020
Temperature: 15.0°C (59°F)
Dewpoint: 14.0°C (57°F) [RH = 94%]
Pressure (altimeter): 30.15 inches Hg (1021.0 mb)
Winds: from the NNE (20 degrees) at 7 MPH (6 knots; 3.1 m/s)
Visibility: 6 or more miles (10+ km)
Ceiling: at least 12,000 feet AGL
Clouds: few clouds at 700 feet AGL
Weather: no significant weather observed at this time

METAR text: NZAA 140300Z AUTO 02006KT 9999 FEW006/// 15/14 Q1021 TEMPO 6000 SHRA BKN004
Conditions at: NZAA (AUCKLAND INTL AR, NZ) observed 0300 UTC 14 July 2020
Temperature: 15.0°C (59°F)
Dewpoint: 14.0°C (57°F) [RH = 94%]
Pressure (altimeter): 30.15 inches Hg (1021.0 mb)
Winds: from the NNE (20 degrees) at 7 MPH (6 knots; 3.1 m/s)
Visibility: 6 or more miles (10+ km)
Ceiling: at least 12,000 feet AGL
Clouds: few clouds at 600 feet AGL
Weather: no significant weather observed at this time

METAR text: NZAA 140230Z AUTO 03006KT 9999 BKN005/// BKN028/// 15/14 Q1021 TEMPO 6000 SHRA BKN004
Conditions at: NZAA (AUCKLAND INTL AR, NZ) observed 0230 UTC 14 July 2020
Temperature: 15.0°C (59°F)
Dewpoint: 14.0°C (57°F) [RH = 94%]
Pressure (altimeter): 30.15 inches Hg (1021.0 mb)
Winds: from the NNE (30 degrees) at 7 MPH (6 knots; 3.1 m/s)
Visibility: 6 or more miles (10+ km)
Ceiling: 500 feet AGL
Clouds: broken clouds at 500 feet AGL
broken clouds at 2800 feet AGL
Weather: no significant weather observed at this time

METAR text: NZAA 140200Z AUTO 02007KT 9999 SCT004/// SCT043/// 15/14 Q1021 TEMPO 6000 SHRA BKN004
Conditions at: NZAA (AUCKLAND INTL AR, NZ) observed 0200 UTC 14 July 2020
Temperature: 15.0°C (59°F)
Dewpoint: 14.0°C (57°F) [RH = 94%]
Pressure (altimeter): 30.15 inches Hg (1021.0 mb)
Winds: from the NNE (20 degrees) at 8 MPH (7 knots; 3.6 m/s)
Visibility: 6 or more miles (10+ km)
Ceiling: at least 12,000 feet AGL
Clouds: scattered clouds at 400 feet AGL
scattered clouds at 4300 feet AGL
Weather: no significant weather observed at this time

METAR text: NZAA 140130Z AUTO 01006KT 9999 -RA SCT005/// BKN036/// BKN047/// 15/14 Q1022 TEMPO 6000 SHRA BKN006
Conditions at: NZAA (AUCKLAND INTL AR, NZ) observed 0130 UTC 14 July 2020
Temperature: 15.0°C (59°F)
Dewpoint: 14.0°C (57°F) [RH = 94%]
Pressure (altimeter): 30.18 inches Hg (1022.0 mb)
Winds: from the N (10 degrees) at 7 MPH (6 knots; 3.1 m/s)
Visibility: 6 or more miles (10+ km)
Ceiling: 3600 feet AGL
Clouds: scattered clouds at 500 feet AGL
broken clouds at 3600 feet AGL
broken clouds at 4700 feet AGL
Weather: -RA  (light rain)

METAR text: NZAA 140100Z AUTO 35006KT 9999 SCT009/// BKN018/// OVC033/// 15/14 Q1022 NOSIG
Conditions at: NZAA (AUCKLAND INTL AR, NZ) observed 0100 UTC 14 July 2020
Temperature: 15.0°C (59°F)
Dewpoint: 14.0°C (57°F) [RH = 94%]
Pressure (altimeter): 30.18 inches Hg (1022.0 mb)
Winds: from the N (350 degrees) at 7 MPH (6 knots; 3.1 m/s)
Visibility: 6 or more miles (10+ km)
Ceiling: 1800 feet AGL
Clouds: scattered clouds at 900 feet AGL
broken clouds at 1800 feet AGL
overcast cloud deck at 3300 feet AGL
Weather: no significant weather observed at this time

METAR text: NZAA 140030Z AUTO 02004KT 9999 BKN026/// 16/14 Q1022 NOSIG
Conditions at: NZAA (AUCKLAND INTL AR, NZ) observed 0030 UTC 14 July 2020
Temperature: 16.0°C (61°F)
Dewpoint: 14.0°C (57°F) [RH = 88%]
Pressure (altimeter): 30.18 inches Hg (1022.0 mb)
Winds: from the NNE (20 degrees) at 5 MPH (4 knots; 2.1 m/s)
Visibility: 6 or more miles (10+ km)
Ceiling: 2600 feet AGL
Clouds: broken clouds at 2600 feet AGL
Weather: no significant weather observed at this time

METAR text: NZAA 140000Z AUTO 01003KT 9999 FEW010/// 16/13 Q1023 NOSIG
Conditions at: NZAA (AUCKLAND INTL AR, NZ) observed 0000 UTC 14 July 2020
Temperature: 16.0°C (61°F)
Dewpoint: 13.0°C (55°F) [RH = 82%]
Pressure (altimeter): 30.21 inches Hg (1023.0 mb)
Winds: from the N (10 degrees) at 3 MPH (3 knots; 1.5 m/s)
Visibility: 6 or more miles (10+ km)
Ceiling: at least 12,000 feet AGL
Clouds: few clouds at 1000 feet AGL
Weather: no significant weather observed at this time

METAR text: NZAA 132330Z AUTO 36005KT 9999 FEW026/// 15/14 Q1023 NOSIG
Conditions at: NZAA (AUCKLAND INTL AR, NZ) observed 2330 UTC 13 July 2020
Temperature: 15.0°C (59°F)
Dewpoint: 14.0°C (57°F) [RH = 94%]
Pressure (altimeter): 30.21 inches Hg (1023.0 mb)
Winds: from the N (360 degrees) at 6 MPH (5 knots; 2.6 m/s)
Visibility: 6 or more miles (10+ km)
Ceiling: at least 12,000 feet AGL
Clouds: few clouds at 2600 feet AGL
Weather: no significant weather observed at this time

METAR text: NZAA 132300Z AUTO 01006KT 9999 FEW007/// BKN025/// 15/14 Q1024 NOSIG
Conditions at: NZAA (AUCKLAND INTL AR, NZ) observed 2300 UTC 13 July 2020
Temperature: 15.0°C (59°F)
Dewpoint: 14.0°C (57°F) [RH = 94%]
Pressure (altimeter): 30.24 inches Hg (1024.0 mb)
Winds: from the N (10 degrees) at 7 MPH (6 knots; 3.1 m/s)
Visibility: 6 or more miles (10+ km)
Ceiling: 2500 feet AGL
Clouds: few clouds at 700 feet AGL
broken clouds at 2500 feet AGL
Weather: no significant weather observed at this time

METAR text: NZAA 132230Z AUTO 36009KT 9999 BKN005/// 14/13 Q1024 TEMPO SCT006
Conditions at: NZAA (AUCKLAND INTL AR, NZ) observed 2230 UTC 13 July 2020
Temperature: 14.0°C (57°F)
Dewpoint: 13.0°C (55°F) [RH = 94%]
Pressure (altimeter): 30.24 inches Hg (1024.0 mb)
Winds: from the N (360 degrees) at 10 MPH (9 knots; 4.6 m/s)
Visibility: 6 or more miles (10+ km)
Ceiling: 500 feet AGL
Clouds: broken clouds at 500 feet AGL
Weather: no significant weather observed at this time

Forecast for: NZAA (AUCKLAND INTL AR, NZ)
Text: TAF NZAA 150501Z 1506/1606 08010KT 9999 -RA FEW030 BKN050
Forecast period: 0600 UTC 15 July 2020 to 0600 UTC 16 July 2020
Forecast type: FROM: standard forecast or significant change
Winds: from the E (80 degrees) at 12 MPH (10 knots; 5.1 m/s)
Visibility: 6 or more miles 10+ km)
Ceiling: 5000 feet AGL
Clouds: few clouds at 3000 feet AGL
broken clouds at 5000 feet AGL
Weather: -RA  (light rain)
Text: BECMG 1506/1508 08015G25KT
Forecast period: 0600 to 0900 UTC 15 July 2020
Forecast type: BECOMING: Conditions expected to become as follows by 0800 UTC 15 July 2020
Winds: from the E (80 degrees) at 17 MPH (15 knots; 7.7 m/s)
gusting to 29 MPH (25 knots; 12.9 m/s)
Visibility: 6 or more miles 10+ km)
Ceiling: 5000 feet AGL
Clouds: few clouds at 3000 feet AGL
broken clouds at 5000 feet AGL
Weather: -RA  (light rain)
Text: TEMPO 1506/1515 6000 RA
Forecast period: 0600 to 1500 UTC 15 July 2020
Forecast type: TEMPORARY: The following changes expected for less than half the time period
Visibility: 4 miles (6 km)
Ceiling: unknown
Clouds: missing
Weather: RA  (moderate rain)
Text: BECMG 1509/1511 08020G35KT
Forecast period: 0900 UTC 15 July 2020 to 0400 UTC 16 July 2020
Forecast type: BECOMING: Conditions expected to become as follows by 1100 UTC 15 July 2020
Winds: from the E (80 degrees) at 23 MPH (20 knots; 10.3 m/s)
gusting to 40 MPH (35 knots; 18.0 m/s)
Visibility: 6 or more miles 10+ km)
Ceiling: 5000 feet AGL
Clouds: few clouds at 3000 feet AGL
broken clouds at 5000 feet AGL
Weather: -RA  (light rain)
Text: PROB40
Forecast period: 1200 UTC 15 July 2020 to 0000 UTC 16 July 2020
Forecast type: TEMPORARY: The following changes expected for less than half the time period
Winds: from the E (80 degrees) at 29 MPH (25 knots; 12.9 m/s)
gusting to 57 MPH (50 knots; 25.7 m/s)
Visibility: missing
Ceiling: unknown
Clouds: missing
Weather: no significant weather forecast for this period
Text: TEMPO 1512/1600 08025G50KT
Forecast period: 1500 UTC 15 July 2020 to 0200 UTC 16 July 2020
Forecast type: TEMPORARY: The following changes expected for less than half the time period
Visibility: 3 miles (5 km)
Ceiling: 1400 feet AGL
Clouds: broken clouds at 1400 feet AGL
Weather: RA  (moderate rain)
Text: TEMPO 1515/1602 5000 RA BKN014
Forecast period: 0400 to 0600 UTC 16 July 2020
Forecast type: BECOMING: Conditions expected to become as follows by 0600 UTC 16 July 2020
Winds: from the E (80 degrees) at 17 MPH (15 knots; 7.7 m/s)
gusting to 29 MPH (25 knots; 12.9 m/s)
Visibility: 6 or more miles 10+ km)
Ceiling: 5000 feet AGL
Clouds: few clouds at 3000 feet AGL
broken clouds at 5000 feet AGL
Weather: -RA  (light rain)